sensor_id;sensor_type;location;lat;lon;timestamp;pressure;altitude;pressure_sealevel;temperature;humidity
77770;BME280;66961;51.482;9.160;2023-11-19T00:00:33;98887.56;;;6.16;100.00
77770;BME280;66961;51.482;9.160;2023-11-19T00:02:58;98877.19;;;6.15;100.00
77770;BME280;66961;51.482;9.160;2023-11-19T00:05:23;98875.09;;;6.18;100.00
77770;BME280;66961;51.482;9.160;2023-11-19T00:07:48;98857.13;;;6.14;100.00
77770;BME280;66961;51.482;9.160;2023-11-19T00:10:15;98853.38;;;6.16;100.00
77770;BME280;66961;51.482;9.160;2023-11-19T00:12:44;98863.72;;;6.18;100.00
77770;BME280;66961;51.482;9.160;2023-11-19T00:15:10;98863.72;;;6.18;100.00
77770;BME280;66961;51.482;9.160;2023-11-19T00:17:35;98845.16;;;6.19;100.00
77770;BME280;66961;51.482;9.160;2023-11-19T00:20:01;98848.09;;;6.16;100.00
77770;BME280;66961;51.482;9.160;2023-11-19T00:22:26;98856.19;;;6.23;100.00
77770;BME280;66961;51.482;9.160;2023-11-19T00:24:51;98842.69;;;6.26;100.00
77770;BME280;66961;51.482;9.160;2023-11-19T00:27:16;98819.34;;;6.23;100.00
77770;BME280;66961;51.482;9.160;2023-11-19T00:29:42;98820.00;;;6.25;100.00
77770;BME280;66961;51.482;9.160;2023-11-19T00:32:07;98812.94;;;6.25;100.00
77770;BME280;66961;51.482;9.160;2023-11-19T00:34:32;98790.06;;;6.26;100.00
77770;BME280;66961;51.482;9.160;2023-11-19T00:36:58;98794.50;;;6.25;100.00
77770;BME280;66961;51.482;9.160;2023-11-19T00:39:23;98796.16;;;6.26;100.00
77770;BME280;66961;51.482;9.160;2023-11-19T00:41:48;98788.41;;;6.25;100.00
77770;BME280;66961;51.482;9.160;2023-11-19T00:44:14;98782.16;;;6.26;100.00
77770;BME280;66961;51.482;9.160;2023-11-19T00:46:39;98773.44;;;6.25;100.00
77770;BME280;66961;51.482;9.160;2023-11-19T00:49:04;98784.81;;;6.26;100.00
77770;BME280;66961;51.482;9.160;2023-11-19T00:51:30;98786.81;;;6.32;100.00
77770;BME280;66961;51.482;9.160;2023-11-19T00:53:55;98775.44;;;6.31;100.00
77770;BME280;66961;51.482;9.160;2023-11-19T00:56:20;98768.88;;;6.36;100.00
77770;BME280;66961;51.482;9.160;2023-11-19T00:58:45;98777.13;;;6.41;100.00
77770;BME280;66961;51.482;9.160;2023-11-19T01:01:14;98771.53;;;6.44;100.00
77770;BME280;66961;51.482;9.160;2023-11-19T01:03:39;98762.19;;;6.49;100.00
77770;BME280;66961;51.482;9.160;2023-11-19T01:06:05;98756.75;;;6.51;100.00
77770;BME280;66961;51.482;9.160;2023-11-19T01:08:30;98750.50;;;6.52;100.00
77770;BME280;66961;51.482;9.160;2023-11-19T01:10:55;98751.31;;;6.52;100.00
77770;BME280;66961;51.482;9.160;2023-11-19T01:13:21;98745.41;;;6.50;100.00
77770;BME280;66961;51.482;9.160;2023-11-19T01:15:46;98750.66;;;6.50;100.00
77770;BME280;66961;51.482;9.160;2023-11-19T01:18:11;98758.56;;;6.50;100.00
77770;BME280;66961;51.482;9.160;2023-11-19T01:20:37;98752.47;;;6.50;100.00
77770;BME280;66961;51.482;9.160;2023-11-19T01:23:02;98743.91;;;6.48;100.00
77770;BME280;66961;51.482;9.160;2023-11-19T01:25:27;98751.31;;;6.52;100.00
77770;BME280;66961;51.482;9.160;2023-11-19T01:27:52;98752.97;;;6.53;100.00
77770;BME280;66961;51.482;9.160;2023-11-19T01:30:18;98746.72;;;6.54;100.00
77770;BME280;66961;51.482;9.160;2023-11-19T01:32:43;98752.00;;;6.54;100.00
77770;BME280;66961;51.482;9.160;2023-11-19T01:35:08;98752.50;;;6.58;100.00
77770;BME280;66961;51.482;9.160;2023-11-19T01:37:34;98739.66;;;6.63;100.00
77770;BME280;66961;51.482;9.160;2023-11-19T01:39:59;98749.22;;;6.64;100.00
77770;BME280;66961;51.482;9.160;2023-11-19T01:42:24;98748.06;;;6.67;100.00
77770;BME280;66961;51.482;9.160;2023-11-19T01:45:00;98748.91;;;6.67;100.00
77770;BME280;66961;51.482;9.160;2023-11-19T01:47:26;98746.41;;;6.66;100.00
77770;BME280;66961;51.482;9.160;2023-11-19T01:49:52;98749.88;;;6.74;100.00
77770;BME280;66961;51.482;9.160;2023-11-19T01:52:18;98747.09;;;6.76;100.00
77770;BME280;66961;51.482;9.160;2023-11-19T01:54:44;98748.91;;;6.75;100.00
77770;BME280;66961;51.482;9.160;2023-11-19T01:57:10;98742.16;;;6.73;100.00
77770;BME280;66961;51.482;9.160;2023-11-19T01:59:35;98744.09;;;6.79;100.00
77770;BME280;66961;51.482;9.160;2023-11-19T02:02:01;98727.31;;;6.80;100.00
77770;BME280;66961;51.482;9.160;2023-11-19T02:04:26;98733.56;;;6.79;100.00
77770;BME280;66961;51.482;9.160;2023-11-19T02:06:54;98724.03;;;6.78;100.00
77770;BME280;66961;51.482;9.160;2023-11-19T02:09:21;98724.69;;;6.80;100.00
77770;BME280;66961;51.482;9.160;2023-11-19T02:11:46;98715.47;;;6.84;100.00
77770;BME280;66961;51.482;9.160;2023-11-19T02:14:12;98723.53;;;6.82;100.00
77770;BME280;66961;51.482;9.160;2023-11-19T02:16:37;98714.16;;;6.88;100.00
77770;BME280;66961;51.482;9.160;2023-11-19T02:19:02;98707.91;;;6.89;100.00
77770;BME280;66961;51.482;9.160;2023-11-19T02:21:28;98693.75;;;6.90;100.00
77770;BME280;66961;51.482;9.160;2023-11-19T02:23:53;98684.19;;;6.89;100.00
77770;BME280;66961;51.482;9.160;2023-11-19T02:26:33;98680.06;;;6.86;100.00
77770;BME280;66961;51.482;9.160;2023-11-19T02:29:01;98661.81;;;6.93;100.00
77770;BME280;66961;51.482;9.160;2023-11-19T02:31:26;98655.06;;;6.90;100.00
77770;BME280;66961;51.482;9.160;2023-11-19T02:33:51;98668.06;;;6.92;100.00
77770;BME280;66961;51.482;9.160;2023-11-19T02:36:17;98661.97;;;6.91;100.00
77770;BME280;66961;51.482;9.160;2023-11-19T02:38:42;98651.44;;;6.91;100.00
77770;BME280;66961;51.482;9.160;2023-11-19T02:41:07;98648.28;;;6.96;100.00
77770;BME280;66961;51.482;9.160;2023-11-19T02:43:34;98650.13;;;6.87;100.00
77770;BME280;66961;51.482;9.160;2023-11-19T02:46:03;98665.25;;;6.93;100.00
77770;BME280;66961;51.482;9.160;2023-11-19T02:48:29;98670.03;;;6.98;100.00
77770;BME280;66961;51.482;9.160;2023-11-19T02:50:54;98670.03;;;6.98;100.00
77770;BME280;66961;51.482;9.160;2023-11-19T02:53:19;98647.81;;;6.92;100.00
77770;BME280;66961;51.482;9.160;2023-11-19T02:55:45;98638.44;;;6.90;100.00
77770;BME280;66961;51.482;9.160;2023-11-19T02:58:10;98632.34;;;6.89;100.00
77770;BME280;66961;51.482;9.160;2023-11-19T03:00:35;98628.88;;;6.89;100.00
77770;BME280;66961;51.482;9.160;2023-11-19T03:03:00;98636.28;;;6.85;100.00
77770;BME280;66961;51.482;9.160;2023-11-19T03:05:27;98620.47;;;6.85;100.00
77770;BME280;66961;51.482;9.160;2023-11-19T03:07:52;98634.97;;;6.89;100.00
77770;BME280;66961;51.482;9.160;2023-11-19T03:10:18;98633.16;;;6.90;100.00
77770;BME280;66961;51.482;9.160;2023-11-19T03:12:44;98633.97;;;6.90;100.00
77770;BME280;66961;51.482;9.160;2023-11-19T03:15:09;98620.97;;;6.89;100.00
77770;BME280;66961;51.482;9.160;2023-11-19T03:17:44;98618.84;;;6.92;100.00
77770;BME280;66961;51.482;9.160;2023-11-19T03:20:10;98609.28;;;6.91;100.00
77770;BME280;66961;51.482;9.160;2023-11-19T03:22:37;98621.94;;;6.96;100.00
77770;BME280;66961;51.482;9.160;2023-11-19T03:25:02;98629.84;;;6.96;100.00
77770;BME280;66961;51.482;9.160;2023-11-19T03:27:27;98622.59;;;6.98;100.00
77770;BME280;66961;51.482;9.160;2023-11-19T03:29:53;98617.34;;;6.98;100.00
77770;BME280;66961;51.482;9.160;2023-11-19T03:32:18;98618.00;;;7.00;100.00
77770;BME280;66961;51.482;9.160;2023-11-19T03:34:43;98618.81;;;7.01;100.00
77770;BME280;66961;51.482;9.160;2023-11-19T03:37:09;98600.34;;;7.09;100.00
77770;BME280;66961;51.482;9.160;2023-11-19T03:39:34;98599.69;;;7.07;100.00
77770;BME280;66961;51.482;9.160;2023-11-19T03:41:59;98610.41;;;7.05;100.00
77770;BME280;66961;51.482;9.160;2023-11-19T03:44:26;98615.34;;;7.08;100.00
77770;BME280;66961;51.482;9.160;2023-11-19T03:46:52;98599.03;;;7.13;100.00
77770;BME280;66961;51.482;9.160;2023-11-19T03:49:17;98594.59;;;7.13;100.00
77770;BME280;66961;51.482;9.160;2023-11-19T03:51:42;98598.53;;;7.17;100.00
77770;BME280;66961;51.482;9.160;2023-11-19T03:54:08;98614.34;;;7.17;100.00
77770;BME280;66961;51.482;9.160;2023-11-19T03:56:33;98606.25;;;7.19;100.00
77770;BME280;66961;51.482;9.160;2023-11-19T03:58:58;98587.50;;;7.14;100.00
77770;BME280;66961;51.482;9.160;2023-11-19T04:01:23;98601.66;;;7.13;100.00
77770;BME280;66961;51.482;9.160;2023-11-19T04:03:49;98599.53;;;7.08;100.00
77770;BME280;66961;51.482;9.160;2023-11-19T04:06:14;98617.16;;;7.08;100.00
77770;BME280;66961;51.482;9.160;2023-11-19T04:08:39;98614.53;;;7.08;100.00
77770;BME280;66961;51.482;9.160;2023-11-19T04:11:04;98595.25;;;7.07;100.00
77770;BME280;66961;51.482;9.160;2023-11-19T04:13:30;98594.09;;;7.10;100.00
77770;BME280;66961;51.482;9.160;2023-11-19T04:15:55;98598.69;;;7.16;100.00
77770;BME280;66961;51.482;9.160;2023-11-19T04:18:20;98610.72;;;7.18;100.00
77770;BME280;66961;51.482;9.160;2023-11-19T04:20:45;98607.75;;;7.21;100.00
77770;BME280;66961;51.482;9.160;2023-11-19T04:23:11;98607.22;;;7.26;100.00
77770;BME280;66961;51.482;9.160;2023-11-19T04:25:36;98613.78;;;7.30;100.00
77770;BME280;66961;51.482;9.160;2023-11-19T04:28:02;98602.25;;;7.31;100.00
77770;BME280;66961;51.482;9.160;2023-11-19T04:30:27;98594.47;;;7.38;100.00
77770;BME280;66961;51.482;9.160;2023-11-19T04:32:53;98597.75;;;7.40;100.00
77770;BME280;66961;51.482;9.160;2023-11-19T04:35:18;98593.97;;;7.42;100.00
77770;BME280;66961;51.482;9.160;2023-11-19T04:37:43;98589.69;;;7.41;100.00
77770;BME280;66961;51.482;9.160;2023-11-19T04:40:09;98590.00;;;7.46;100.00
77770;BME280;66961;51.482;9.160;2023-11-19T04:42:34;98589.00;;;7.47;100.00
77770;BME280;66961;51.482;9.160;2023-11-19T04:44:59;98595.56;;;7.51;100.00
77770;BME280;66961;51.482;9.160;2023-11-19T04:47:25;98594.75;;;7.51;100.00
77770;BME280;66961;51.482;9.160;2023-11-19T04:49:50;98592.78;;;7.53;100.00
77770;BME280;66961;51.482;9.160;2023-11-19T04:52:15;98575.31;;;7.52;100.00
77770;BME280;66961;51.482;9.160;2023-11-19T04:54:41;98582.69;;;7.56;100.00
77770;BME280;66961;51.482;9.160;2023-11-19T04:57:07;98567.72;;;7.57;100.00
77770;BME280;66961;51.482;9.160;2023-11-19T04:59:34;98570.81;;;7.60;100.00
77770;BME280;66961;51.482;9.160;2023-11-19T05:01:59;98569.81;;;7.61;100.00
77770;BME280;66961;51.482;9.160;2023-11-19T05:04:24;98564.56;;;7.61;100.00
77770;BME280;66961;51.482;9.160;2023-11-19T05:06:50;98566.03;;;7.64;100.00
77770;BME280;66961;51.482;9.160;2023-11-19T05:09:15;98572.94;;;7.65;100.00
77770;BME280;66961;51.482;9.160;2023-11-19T05:11:40;98574.75;;;7.64;100.00
77770;BME280;66961;51.482;9.160;2023-11-19T05:14:05;98586.59;;;7.69;100.00
77770;BME280;66961;51.482;9.160;2023-11-19T05:16:31;98576.69;;;7.71;100.00
77770;BME280;66961;51.482;9.160;2023-11-19T05:18:56;98573.25;;;7.70;100.00
77770;BME280;66961;51.482;9.160;2023-11-19T05:21:22;98573.13;;;7.63;100.00
77770;BME280;66961;51.482;9.160;2023-11-19T05:23:47;98583.44;;;7.73;100.00
77770;BME280;66961;51.482;9.160;2023-11-19T05:26:24;98584.28;;;7.74;100.00
77770;BME280;66961;51.482;9.160;2023-11-19T05:28:49;98578.00;;;7.75;100.00
77770;BME280;66961;51.482;9.160;2023-11-19T05:31:16;98585.41;;;7.79;100.00
77770;BME280;66961;51.482;9.160;2023-11-19T05:33:42;98582.75;;;7.79;100.00
77770;BME280;66961;51.482;9.160;2023-11-19T05:36:07;98574.19;;;7.77;100.00
77770;BME280;66961;51.482;9.160;2023-11-19T05:38:33;98587.22;;;7.79;100.00
77770;BME280;66961;51.482;9.160;2023-11-19T05:40:58;98596.13;;;7.78;100.00
77770;BME280;66961;51.482;9.160;2023-11-19T05:43:23;98585.91;;;7.75;100.00
77770;BME280;66961;51.482;9.160;2023-11-19T05:45:48;98583.16;;;7.68;100.00
77770;BME280;66961;51.482;9.160;2023-11-19T05:48:14;98589.44;;;7.59;100.00
77770;BME280;66961;51.482;9.160;2023-11-19T05:50:39;98579.41;;;7.54;100.00
77770;BME280;66961;51.482;9.160;2023-11-19T05:53:04;98579.75;;;7.51;100.00
77770;BME280;66961;51.482;9.160;2023-11-19T05:55:30;98587.31;;;7.54;100.00
77770;BME280;66961;51.482;9.160;2023-11-19T05:57:55;98580.41;;;7.53;100.00
77770;BME280;66961;51.482;9.160;2023-11-19T06:00:20;98596.06;;;7.55;100.00
77770;BME280;66961;51.482;9.160;2023-11-19T06:02:46;98593.09;;;7.58;100.00
77770;BME280;66961;51.482;9.160;2023-11-19T06:05:11;98601.94;;;7.65;100.00
77770;BME280;66961;51.482;9.160;2023-11-19T06:07:37;98586.78;;;7.67;100.00
77770;BME280;66961;51.482;9.160;2023-11-19T06:10:02;98592.88;;;7.68;100.00
77770;BME280;66961;51.482;9.160;2023-11-19T06:12:28;98586.78;;;7.67;100.00
77770;BME280;66961;51.482;9.160;2023-11-19T06:14:53;98604.56;;;7.73;100.00
77770;BME280;66961;51.482;9.160;2023-11-19T06:17:18;98588.91;;;7.72;100.00
77770;BME280;66961;51.482;9.160;2023-11-19T06:19:44;98583.44;;;7.96;100.00
77770;BME280;66961;51.482;9.160;2023-11-19T06:22:09;98602.78;;;8.19;100.00
77770;BME280;66961;51.482;9.160;2023-11-19T06:24:34;98589.50;;;8.50;100.00
77770;BME280;66961;51.482;9.160;2023-11-19T06:26:59;98587.34;;;8.54;100.00
77770;BME280;66961;51.482;9.160;2023-11-19T06:29:25;98591.91;;;8.60;100.00
77770;BME280;66961;51.482;9.160;2023-11-19T06:31:50;98593.38;;;8.62;100.00
77770;BME280;66961;51.482;9.160;2023-11-19T06:34:15;98585.38;;;8.71;100.00
77770;BME280;66961;51.482;9.160;2023-11-19T06:36:41;98594.28;;;8.84;100.00
77770;BME280;66961;51.482;9.160;2023-11-19T06:39:06;98586.84;;;8.88;100.00
77770;BME280;66961;51.482;9.160;2023-11-19T06:41:32;98574.72;;;8.79;100.00
77770;BME280;66961;51.482;9.160;2023-11-19T06:43:57;98589.13;;;8.76;100.00
77770;BME280;66961;51.482;9.160;2023-11-19T06:46:29;98586.66;;;8.89;100.00
77770;BME280;66961;51.482;9.160;2023-11-19T06:48:54;98582.66;;;8.93;100.00
77770;BME280;66961;51.482;9.160;2023-11-19T06:51:19;98591.84;;;8.98;100.00
77770;BME280;66961;51.482;9.160;2023-11-19T06:53:44;98593.50;;;8.99;100.00
77770;BME280;66961;51.482;9.160;2023-11-19T06:56:23;98590.78;;;9.07;100.00
77770;BME280;66961;51.482;9.160;2023-11-19T06:58:49;98605.91;;;9.13;100.00
77770;BME280;66961;51.482;9.160;2023-11-19T07:01:17;98621.78;;;9.13;100.00
77770;BME280;66961;51.482;9.160;2023-11-19T07:03:44;98620.31;;;9.10;100.00
77770;BME280;66961;51.482;9.160;2023-11-19T07:06:10;98604.00;;;9.07;100.00
77770;BME280;66961;51.482;9.160;2023-11-19T07:08:35;98605.91;;;9.13;100.00
77770;BME280;66961;51.482;9.160;2023-11-19T07:11:00;98606.91;;;9.12;100.00
77770;BME280;66961;51.482;9.160;2023-11-19T07:13:26;98607.00;;;9.18;100.00
77770;BME280;66961;51.482;9.160;2023-11-19T07:15:51;98597.53;;;9.24;100.00
77770;BME280;66961;51.482;9.160;2023-11-19T07:18:16;98596.34;;;9.26;100.00
77770;BME280;66961;51.482;9.160;2023-11-19T07:20:41;98592.41;;;9.22;100.00
77770;BME280;66961;51.482;9.160;2023-11-19T07:23:07;98597.63;;;9.31;100.00
77770;BME280;66961;51.482;9.160;2023-11-19T07:25:32;98603.72;;;9.31;100.00
77770;BME280;66961;51.482;9.160;2023-11-19T07:27:57;98593.22;;;9.38;100.00
77770;BME280;66961;51.482;9.160;2023-11-19T07:30:22;98582.56;;;9.31;100.00
77770;BME280;66961;51.482;9.160;2023-11-19T07:32:48;98583.56;;;9.30;100.00
77770;BME280;66961;51.482;9.160;2023-11-19T07:35:13;98604.72;;;9.30;100.00
77770;BME280;66961;51.482;9.160;2023-11-19T07:37:38;98595.78;;;9.31;100.00
77770;BME280;66961;51.482;9.160;2023-11-19T07:40:04;98608.88;;;9.54;100.00
77770;BME280;66961;51.482;9.160;2023-11-19T07:42:29;98613.53;;;9.67;100.00
77770;BME280;66961;51.482;9.160;2023-11-19T07:44:54;98615.16;;;9.82;100.00
77770;BME280;66961;51.482;9.160;2023-11-19T07:47:20;98610.69;;;9.83;100.00
77770;BME280;66961;51.482;9.160;2023-11-19T07:49:45;98622.91;;;9.84;100.00
77770;BME280;66961;51.482;9.160;2023-11-19T07:52:10;98622.72;;;9.85;98.90
77770;BME280;66961;51.482;9.160;2023-11-19T07:54:35;98619.81;;;10.02;98.18
77770;BME280;66961;51.482;9.160;2023-11-19T07:57:01;98614.41;;;10.10;97.18
77770;BME280;66961;51.482;9.160;2023-11-19T07:59:26;98614.69;;;10.15;97.50
77770;BME280;66961;51.482;9.160;2023-11-19T08:01:51;98612.66;;;10.17;96.48
77770;BME280;66961;51.482;9.160;2023-11-19T08:04:16;98618.69;;;10.25;95.87
77770;BME280;66961;51.482;9.160;2023-11-19T08:06:42;98618.00;;;10.38;94.50
77770;BME280;66961;51.482;9.160;2023-11-19T08:09:07;98616.66;;;10.49;93.04
77770;BME280;66961;51.482;9.160;2023-11-19T08:11:33;98623.84;;;10.55;92.53
77770;BME280;66961;51.482;9.160;2023-11-19T08:13:58;98620.00;;;10.57;92.13
77770;BME280;66961;51.482;9.160;2023-11-19T08:16:23;98615.81;;;10.70;89.51
77770;BME280;66961;51.482;9.160;2023-11-19T08:18:48;98611.97;;;10.72;89.16
77770;BME280;66961;51.482;9.160;2023-11-19T08:21:14;98620.56;;;10.74;89.91
77770;BME280;66961;51.482;9.160;2023-11-19T08:23:40;98630.16;;;10.75;89.53
77770;BME280;66961;51.482;9.160;2023-11-19T08:26:05;98630.59;;;10.79;88.22
77770;BME280;66961;51.482;9.160;2023-11-19T08:28:31;98629.50;;;10.73;87.88
77770;BME280;66961;51.482;9.160;2023-11-19T08:30:56;98640.31;;;10.72;85.70
77770;BME280;66961;51.482;9.160;2023-11-19T08:33:22;98646.63;;;10.71;85.48
77770;BME280;66961;51.482;9.160;2023-11-19T08:35:47;98635.19;;;10.70;84.32
77770;BME280;66961;51.482;9.160;2023-11-19T08:38:12;98623.88;;;10.83;81.29
77770;BME280;66961;51.482;9.160;2023-11-19T08:40:37;98633.84;;;10.81;82.00
77770;BME280;66961;51.482;9.160;2023-11-19T08:43:03;98653.03;;;10.83;81.06
77770;BME280;66961;51.482;9.160;2023-11-19T08:45:28;98648.13;;;10.80;81.61
77770;BME280;66961;51.482;9.160;2023-11-19T08:47:53;98650.59;;;10.81;80.86
77770;BME280;66961;51.482;9.160;2023-11-19T08:50:18;98645.78;;;10.98;80.76
77770;BME280;66961;51.482;9.160;2023-11-19T08:52:44;98645.56;;;11.21;79.07
77770;BME280;66961;51.482;9.160;2023-11-19T08:55:09;98631.97;;;11.31;78.97
77770;BME280;66961;51.482;9.160;2023-11-19T08:57:34;98642.66;;;11.50;76.22
77770;BME280;66961;51.482;9.160;2023-11-19T08:59:59;98644.88;;;11.40;77.08
77770;BME280;66961;51.482;9.160;2023-11-19T09:02:25;98652.03;;;11.46;77.25
77770;BME280;66961;51.482;9.160;2023-11-19T09:04:50;98665.13;;;11.54;76.68
77770;BME280;66961;51.482;9.160;2023-11-19T09:07:15;98654.56;;;11.61;76.01
77770;BME280;66961;51.482;9.160;2023-11-19T09:09:41;98680.31;;;11.67;75.04
77770;BME280;66961;51.482;9.160;2023-11-19T09:12:06;98653.00;;;11.73;75.74
77770;BME280;66961;51.482;9.160;2023-11-19T09:14:31;98653.69;;;11.82;76.33
77770;BME280;66961;51.482;9.160;2023-11-19T09:16:57;98656.41;;;11.95;75.21
77770;BME280;66961;51.482;9.160;2023-11-19T09:19:22;98671.28;;;11.96;75.38
77770;BME280;66961;51.482;9.160;2023-11-19T09:21:48;98663.75;;;12.00;73.68
77770;BME280;66961;51.482;9.160;2023-11-19T09:24:13;98662.13;;;12.05;73.56
77770;BME280;66961;51.482;9.160;2023-11-19T09:26:38;98665.00;;;12.10;74.21
77770;BME280;66961;51.482;9.160;2023-11-19T09:29:04;98675.59;;;12.04;73.33
77770;BME280;66961;51.482;9.160;2023-11-19T09:31:29;98681.31;;;11.94;73.63
77770;BME280;66961;51.482;9.160;2023-11-19T09:33:55;98674.50;;;11.78;74.44
77770;BME280;66961;51.482;9.160;2023-11-19T09:36:20;98690.56;;;11.70;74.10
77770;BME280;66961;51.482;9.160;2023-11-19T09:38:45;98679.31;;;11.68;74.19
77770;BME280;66961;51.482;9.160;2023-11-19T09:41:11;98688.72;;;11.71;74.45
77770;BME280;66961;51.482;9.160;2023-11-19T09:43:36;98707.38;;;11.77;74.25
77770;BME280;66961;51.482;9.160;2023-11-19T09:46:06;98687.97;;;11.77;74.30
77770;BME280;66961;51.482;9.160;2023-11-19T09:48:35;98700.97;;;11.72;73.25
77770;BME280;66961;51.482;9.160;2023-11-19T09:51:01;98691.53;;;11.63;75.46
77770;BME280;66961;51.482;9.160;2023-11-19T09:53:26;98697.06;;;11.68;73.28
77770;BME280;66961;51.482;9.160;2023-11-19T09:55:53;98688.94;;;11.76;73.80
77770;BME280;66961;51.482;9.160;2023-11-19T09:58:18;98706.00;;;11.88;73.40
77770;BME280;66961;51.482;9.160;2023-11-19T10:00:43;98690.69;;;11.97;73.54
77770;BME280;66961;51.482;9.160;2023-11-19T10:03:11;98694.00;;;12.05;73.22
77770;BME280;66961;51.482;9.160;2023-11-19T10:05:36;98702.19;;;12.10;73.25
77770;BME280;66961;51.482;9.160;2023-11-19T10:08:02;98695.06;;;12.17;72.33
77770;BME280;66961;51.482;9.160;2023-11-19T10:10:27;98693.41;;;12.10;73.98
77770;BME280;66961;51.482;9.160;2023-11-19T10:12:52;98702.19;;;12.10;73.84
77770;BME280;66961;51.482;9.160;2023-11-19T10:15:22;98694.84;;;12.12;73.07
77770;BME280;66961;51.482;9.160;2023-11-19T10:17:48;98687.44;;;12.01;73.35
77770;BME280;66961;51.482;9.160;2023-11-19T10:20:13;98689.28;;;11.94;74.06
77770;BME280;66961;51.482;9.160;2023-11-19T10:22:38;98674.53;;;11.85;73.36
77770;BME280;66961;51.482;9.160;2023-11-19T10:25:05;98683.72;;;11.82;74.05
77770;BME280;66961;51.482;9.160;2023-11-19T10:27:30;98673.50;;;11.86;74.58
77770;BME280;66961;51.482;9.160;2023-11-19T10:29:59;98688.66;;;11.92;74.52
77770;BME280;66961;51.482;9.160;2023-11-19T10:32:24;98675.66;;;12.17;72.97
77770;BME280;66961;51.482;9.160;2023-11-19T10:34:50;98647.06;;;12.19;73.13
77770;BME280;66961;51.482;9.160;2023-11-19T10:37:35;98669.41;;;12.38;71.84
77770;BME280;66961;51.482;9.160;2023-11-19T10:40:00;98670.22;;;12.38;72.52
77770;BME280;66961;51.482;9.160;2023-11-19T10:42:26;98662.63;;;12.35;72.58
77770;BME280;66961;51.482;9.160;2023-11-19T10:44:51;98673.69;;;12.39;72.89
77770;BME280;66961;51.482;9.160;2023-11-19T10:47:19;98667.56;;;12.45;72.51
77770;BME280;66961;51.482;9.160;2023-11-19T10:49:44;98671.84;;;12.52;71.45
77770;BME280;66961;51.482;9.160;2023-11-19T10:52:10;98660.63;;;12.44;70.33
77770;BME280;66961;51.482;9.160;2023-11-19T10:54:37;98664.69;;;12.40;71.03
77770;BME280;66961;51.482;9.160;2023-11-19T10:57:09;98664.06;;;12.38;71.80
77770;BME280;66961;51.482;9.160;2023-11-19T10:59:35;98665.28;;;12.35;71.16
77770;BME280;66961;51.482;9.160;2023-11-19T11:02:06;98661.25;;;12.46;70.88
77770;BME280;66961;51.482;9.160;2023-11-19T11:04:40;98657.53;;;12.40;70.75
77770;BME280;66961;51.482;9.160;2023-11-19T11:07:05;98659.34;;;12.26;70.76
77770;BME280;66961;51.482;9.160;2023-11-19T11:09:31;98653.00;;;12.21;72.15
77770;BME280;66961;51.482;9.160;2023-11-19T11:11:57;98675.06;;;12.21;72.01
77770;BME280;66961;51.482;9.160;2023-11-19T11:14:24;98676.88;;;12.14;72.51
77770;BME280;66961;51.482;9.160;2023-11-19T11:16:51;98667.66;;;12.10;72.46
77770;BME280;66961;51.482;9.160;2023-11-19T11:19:16;98672.56;;;12.07;72.87
77770;BME280;66961;51.482;9.160;2023-11-19T11:21:46;98663.53;;;12.01;73.49
77770;BME280;66961;51.482;9.160;2023-11-19T11:27:40;98668.22;;;11.99;73.94
77770;BME280;66961;51.482;9.160;2023-11-19T11:33:41;98677.22;;;11.91;73.94
77770;BME280;66961;51.482;9.160;2023-11-19T11:36:22;98659.84;;;11.89;72.68
77770;BME280;66961;51.482;9.160;2023-11-19T11:38:49;98660.47;;;11.91;72.90
77770;BME280;66961;51.482;9.160;2023-11-19T11:41:16;98654.75;;;11.94;72.68
77770;BME280;66961;51.482;9.160;2023-11-19T11:49:01;98656.19;;;12.03;71.83
77770;BME280;66961;51.482;9.160;2023-11-19T11:54:30;98664.38;;;12.02;72.40
77770;BME280;66961;51.482;9.160;2023-11-19T11:57:10;98660.47;;;11.98;72.50
77770;BME280;66961;51.482;9.160;2023-11-19T11:59:37;98662.53;;;11.96;71.91
77770;BME280;66961;51.482;9.160;2023-11-19T12:02:03;98660.06;;;12.01;71.88
77770;BME280;66961;51.482;9.160;2023-11-19T12:04:28;98675.38;;;11.99;71.68
77770;BME280;66961;51.482;9.160;2023-11-19T12:07:13;98654.13;;;11.99;71.75
77770;BME280;66961;51.482;9.160;2023-11-19T12:09:42;98659.88;;;11.96;72.42
77770;BME280;66961;51.482;9.160;2023-11-19T12:20:01;98651.59;;;12.38;70.50
77770;BME280;66961;51.482;9.160;2023-11-19T12:22:27;98642.44;;;12.47;69.34
77770;BME280;66961;51.482;9.160;2023-11-19T12:24:56;98649.38;;;12.68;69.50
77770;BME280;66961;51.482;9.160;2023-11-19T12:27:21;98641.41;;;12.62;70.50
77770;BME280;66961;51.482;9.160;2023-11-19T12:29:47;98659.63;;;12.71;68.92
77770;BME280;66961;51.482;9.160;2023-11-19T12:32:12;98667.59;;;12.71;67.40
77770;BME280;66961;51.482;9.160;2023-11-19T12:34:37;98668.19;;;12.60;66.00
77770;BME280;66961;51.482;9.160;2023-11-19T12:37:03;98636.06;;;12.48;66.60
77770;BME280;66961;51.482;9.160;2023-11-19T12:39:32;98645.06;;;12.54;66.27
77770;BME280;66961;51.482;9.160;2023-11-19T12:41:57;98634.25;;;12.42;65.87
77770;BME280;66961;51.482;9.160;2023-11-19T12:44:22;98631.41;;;12.77;64.58
77770;BME280;66961;51.482;9.160;2023-11-19T12:47:02;98635.47;;;13.25;63.53
77770;BME280;66961;51.482;9.160;2023-11-19T12:49:28;98657.09;;;13.55;62.67
77770;BME280;66961;51.482;9.160;2023-11-19T12:51:53;98661.38;;;13.63;62.44
77770;BME280;66961;51.482;9.160;2023-11-19T12:54:18;98638.22;;;13.64;63.60
77770;BME280;66961;51.482;9.160;2023-11-19T12:56:53;98637.22;;;13.58;64.35
77770;BME280;66961;51.482;9.160;2023-11-19T12:59:18;98646.31;;;13.37;64.89
77770;BME280;66961;51.482;9.160;2023-11-19T13:01:54;98642.16;;;13.54;65.11
77770;BME280;66961;51.482;9.160;2023-11-19T13:04:19;98636.66;;;13.49;65.83
77770;BME280;66961;51.482;9.160;2023-11-19T13:06:45;98630.84;;;13.72;64.36
77770;BME280;66961;51.482;9.160;2023-11-19T13:09:27;98627.88;;;14.00;64.16
77770;BME280;66961;51.482;9.160;2023-11-19T13:11:54;98620.88;;;14.37;64.19
77770;BME280;66961;51.482;9.160;2023-11-19T13:14:20;98631.22;;;14.20;62.62
77770;BME280;66961;51.482;9.160;2023-11-19T13:16:45;98632.06;;;14.14;63.48